createdAt,value
2023-05-05T00:00:49.354Z,36.25
2023-05-05T00:01:49.419Z,36.25
2023-05-05T00:02:49.517Z,36.25
2023-05-05T00:03:49.581Z,36.32
2023-05-05T00:04:49.547Z,36.27
2023-05-05T00:05:49.573Z,36.27
2023-05-05T00:06:49.626Z,36.27
2023-05-05T00:07:49.664Z,36.28
2023-05-05T00:08:49.751Z,36.29
2023-05-05T00:09:49.752Z,36.29
2023-05-05T00:10:49.791Z,36.29
2023-05-05T00:11:49.839Z,36.25
2023-05-05T00:12:49.905Z,36.24
2023-05-05T00:13:49.920Z,36.29
2023-05-05T00:14:49.978Z,36.28
2023-05-05T00:15:50.021Z,36.28
2023-05-05T00:16:50.070Z,36.32
2023-05-05T00:17:50.126Z,36.25
2023-05-05T00:18:50.142Z,36.26
2023-05-05T00:19:50.189Z,36.29
2023-05-05T00:20:50.249Z,36.32
2023-05-05T00:21:50.292Z,36.27
2023-05-05T00:22:50.295Z,36.27
2023-05-05T00:23:50.295Z,36.29
2023-05-05T00:24:50.303Z,36.29
2023-05-05T00:25:50.301Z,36.31
2023-05-05T00:26:50.302Z,36.30
2023-05-05T00:27:50.308Z,36.30
2023-05-05T00:28:50.331Z,36.26
2023-05-05T00:29:50.311Z,36.34
2023-05-05T00:30:50.325Z,36.34
2023-05-05T00:31:50.324Z,36.29
2023-05-05T00:32:50.366Z,36.28
2023-05-05T00:33:50.347Z,36.26
2023-05-05T00:34:50.369Z,36.29
2023-05-05T00:35:50.363Z,36.32
2023-05-05T00:36:50.380Z,36.28
2023-05-05T00:37:50.425Z,36.29
2023-05-05T00:38:50.481Z,36.31
2023-05-05T00:39:50.526Z,36.29
2023-05-05T00:40:50.596Z,36.33
2023-05-05T00:41:50.630Z,36.28
2023-05-05T00:42:50.701Z,36.34
2023-05-05T00:43:50.720Z,36.31
2023-05-05T00:44:50.771Z,36.34
2023-05-05T00:45:50.815Z,36.28
2023-05-05T00:46:51.022Z,36.30
2023-05-05T00:47:50.934Z,36.30
2023-05-05T00:48:51.067Z,36.32
2023-05-05T00:49:50.992Z,36.31
2023-05-05T00:50:51.056Z,36.29
2023-05-05T00:51:51.090Z,36.31
2023-05-05T00:52:51.135Z,36.33
2023-05-05T00:53:51.182Z,36.31
2023-05-05T00:54:51.226Z,36.30
2023-05-05T00:55:51.276Z,36.27
2023-05-05T00:56:51.313Z,36.31
2023-05-05T00:57:51.365Z,36.33
2023-05-05T00:58:51.409Z,36.34
2023-05-05T00:59:51.454Z,36.30
2023-05-05T01:00:51.495Z,36.34
2023-05-05T01:01:51.582Z,36.33
2023-05-05T01:02:51.635Z,36.34
2023-05-05T01:03:51.716Z,36.35
2023-05-05T01:04:51.681Z,36.33
2023-05-05T01:05:51.732Z,36.30
2023-05-05T01:06:51.771Z,36.34
2023-05-05T01:07:51.803Z,36.34
2023-05-05T01:08:51.847Z,36.36
2023-05-05T01:09:58.702Z,36.34
2023-05-05T01:10:52.925Z,36.30
2023-05-05T01:11:51.896Z,36.31
2023-05-05T01:12:51.953Z,36.35
2023-05-05T01:13:51.918Z,36.33
2023-05-05T01:14:51.922Z,36.34
2023-05-05T01:15:51.982Z,36.36
2023-05-05T01:16:51.929Z,36.29
2023-05-05T01:17:52.001Z,36.34
2023-05-05T01:18:51.953Z,36.36
2023-05-05T01:19:51.953Z,36.36
2023-05-05T01:20:51.989Z,36.30
2023-05-05T01:21:51.980Z,36.36
2023-05-05T01:22:51.986Z,36.34
2023-05-05T01:23:51.995Z,36.35
2023-05-05T01:24:51.999Z,36.36
2023-05-05T01:25:52.024Z,36.32
2023-05-05T01:26:52.078Z,36.32
2023-05-05T01:27:52.127Z,36.34
2023-05-05T01:28:52.171Z,36.36
2023-05-05T01:29:52.227Z,36.33
2023-05-05T01:30:52.288Z,36.31
2023-05-05T01:31:52.366Z,36.35
2023-05-05T01:32:52.426Z,36.36
2023-05-05T01:33:52.434Z,36.36
2023-05-05T01:34:52.478Z,36.31
2023-05-05T01:35:52.541Z,36.31
2023-05-05T01:36:52.577Z,36.34
2023-05-05T01:37:52.624Z,36.30
2023-05-05T01:38:52.700Z,36.31
2023-05-05T01:39:52.738Z,36.36
2023-05-05T01:40:52.796Z,36.31
2023-05-05T01:41:52.839Z,36.35
2023-05-05T01:42:52.893Z,36.36
2023-05-05T01:43:52.941Z,36.38
2023-05-05T01:44:52.996Z,36.33
2023-05-05T01:45:53.071Z,36.36
2023-05-05T01:46:53.089Z,36.31
2023-05-05T01:47:53.169Z,36.37
2023-05-05T01:48:53.196Z,36.36
2023-05-05T01:49:53.246Z,36.35
2023-05-05T01:50:53.304Z,36.35
2023-05-05T01:51:53.367Z,36.38
2023-05-05T01:52:53.414Z,36.35
2023-05-05T01:53:53.473Z,36.36
2023-05-05T01:54:53.520Z,36.35
2023-05-05T01:55:53.566Z,36.33
2023-05-05T01:56:53.633Z,36.32
2023-05-05T01:57:53.679Z,36.34
2023-05-05T01:58:53.736Z,36.34
2023-05-05T01:59:53.788Z,36.36
2023-05-05T02:00:53.950Z,36.36
2023-05-05T02:01:53.875Z,36.31
2023-05-05T02:02:53.966Z,36.31
2023-05-05T02:03:53.982Z,36.35
2023-05-05T02:04:54.018Z,36.37
2023-05-05T02:05:54.060Z,36.36
2023-05-05T02:06:54.108Z,36.38
2023-05-05T02:07:54.156Z,36.37
2023-05-05T02:08:54.200Z,36.36
2023-05-05T02:09:54.245Z,36.32
2023-05-05T02:10:54.304Z,36.37
2023-05-05T02:11:54.341Z,36.35
2023-05-05T02:12:54.428Z,36.37
2023-05-05T02:13:54.458Z,36.38
2023-05-05T02:14:54.500Z,36.36
2023-05-05T02:15:54.605Z,36.35
2023-05-05T02:16:54.613Z,36.35
2023-05-05T02:17:54.693Z,36.40
2023-05-05T02:18:54.710Z,36.37
2023-05-05T02:19:54.780Z,36.33
2023-05-05T02:20:54.815Z,36.37
2023-05-05T02:21:54.882Z,36.38
2023-05-05T02:22:54.945Z,36.40
2023-05-05T02:23:55.006Z,36.38
2023-05-05T02:24:55.053Z,36.33
2023-05-05T02:25:55.094Z,36.35
2023-05-05T02:26:55.153Z,36.40
2023-05-05T02:27:55.205Z,36.37
2023-05-05T02:28:55.278Z,36.37
2023-05-05T02:29:55.334Z,36.36
2023-05-05T02:30:55.385Z,36.38
2023-05-05T02:31:55.436Z,36.41
2023-05-05T02:32:55.541Z,36.32
2023-05-05T02:33:55.558Z,36.34
2023-05-05T02:34:55.622Z,36.36
2023-05-05T02:35:55.669Z,36.40
2023-05-05T02:36:55.729Z,36.36
2023-05-05T02:37:55.788Z,36.38
2023-05-05T02:38:55.846Z,36.37
2023-05-05T02:39:55.898Z,36.38
2023-05-05T02:40:55.946Z,36.42
2023-05-05T02:41:56.011Z,36.37
2023-05-05T02:42:56.089Z,36.36
2023-05-05T02:43:56.104Z,36.40
2023-05-05T02:44:56.159Z,36.40
2023-05-05T02:45:56.196Z,36.42
2023-05-05T02:46:56.254Z,36.35
2023-05-05T02:47:56.314Z,36.41
2023-05-05T02:48:56.352Z,36.42
2023-05-05T02:49:56.402Z,36.41
2023-05-05T02:50:56.455Z,36.38
2023-05-05T02:51:56.508Z,36.36
2023-05-05T02:52:56.575Z,36.37
2023-05-05T02:53:56.615Z,36.41
2023-05-05T02:54:56.669Z,36.39
2023-05-05T02:55:56.733Z,36.41
2023-05-05T02:56:56.791Z,36.41
2023-05-05T02:57:56.853Z,36.42
2023-05-05T02:58:56.917Z,36.40
2023-05-05T02:59:56.976Z,36.42
2023-05-05T03:00:57.012Z,36.36
2023-05-05T03:01:57.259Z,36.36
2023-05-05T03:02:57.206Z,36.43
2023-05-05T03:03:57.319Z,36.37
2023-05-05T03:04:57.234Z,36.41
2023-05-05T03:05:57.297Z,36.41
2023-05-05T03:06:57.356Z,36.39
2023-05-05T03:07:57.400Z,36.38
2023-05-05T03:08:57.482Z,36.41
2023-05-05T03:09:57.513Z,36.42
2023-05-05T03:10:57.585Z,36.38
2023-05-05T03:11:57.628Z,36.41
2023-05-05T03:12:57.713Z,36.39
2023-05-05T03:13:57.745Z,36.41
2023-05-05T03:14:57.805Z,36.39
2023-05-05T03:15:58.121Z,36.40
2023-05-05T03:16:57.920Z,36.39
2023-05-05T03:17:58.004Z,36.38
2023-05-05T03:18:58.023Z,36.42
2023-05-05T03:19:58.074Z,36.37
2023-05-05T03:20:58.137Z,36.41
2023-05-05T03:21:58.196Z,36.39
2023-05-05T03:22:58.247Z,36.39
2023-05-05T03:23:58.323Z,36.41
2023-05-05T03:24:58.375Z,36.41
2023-05-05T03:25:58.424Z,36.41
2023-05-05T03:26:58.480Z,36.41
2023-05-05T03:27:58.547Z,36.43
2023-05-05T03:28:58.603Z,36.41
2023-05-05T03:29:58.662Z,36.42
2023-05-05T03:30:58.717Z,36.43
2023-05-05T03:31:58.814Z,36.43
2023-05-05T03:32:58.893Z,36.37
2023-05-05T03:33:58.906Z,36.42
2023-05-05T03:34:58.965Z,36.38
2023-05-05T03:35:59.023Z,36.41
2023-05-05T03:36:59.077Z,36.40
2023-05-05T03:37:59.140Z,36.42
2023-05-05T03:38:59.196Z,36.44
2023-05-05T03:39:59.269Z,36.44
2023-05-05T03:40:59.350Z,36.40
2023-05-05T03:41:59.398Z,36.42
2023-05-05T03:42:59.440Z,36.40
2023-05-05T03:43:59.517Z,36.42
2023-05-05T03:44:59.566Z,36.44
2023-05-05T03:45:59.663Z,36.43
2023-05-05T03:46:59.680Z,36.46
2023-05-05T03:47:59.795Z,36.40
2023-05-05T03:48:59.804Z,36.44
2023-05-05T03:49:59.860Z,36.39
2023-05-05T03:51:00.612Z,36.39
2023-05-05T03:51:59.982Z,36.42
2023-05-05T03:53:00.058Z,36.43
2023-05-05T03:54:00.143Z,36.41
2023-05-05T03:55:00.205Z,36.46
2023-05-05T03:56:00.281Z,36.40
2023-05-05T03:57:00.298Z,36.43
2023-05-05T03:58:00.368Z,36.38
2023-05-05T03:59:00.443Z,36.42
2023-05-05T04:00:00.506Z,36.44
2023-05-05T04:01:00.551Z,36.42
2023-05-05T04:02:00.750Z,36.42
2023-05-05T04:03:01.192Z,36.44
2023-05-05T04:04:00.818Z,36.38
2023-05-05T04:05:00.809Z,36.43
2023-05-05T04:06:00.886Z,36.39
2023-05-05T04:07:00.941Z,36.39
2023-05-05T04:08:01.008Z,36.42
2023-05-05T04:09:01.063Z,36.40
2023-05-05T04:10:01.131Z,36.38
2023-05-05T04:11:01.194Z,36.41
2023-05-05T04:12:01.246Z,36.42
2023-05-05T04:13:01.343Z,36.38
2023-05-05T04:14:01.385Z,36.39
2023-05-05T04:15:01.426Z,36.39
2023-05-05T04:16:01.618Z,36.40
2023-05-05T04:17:01.544Z,36.36
2023-05-05T04:18:01.620Z,36.42
2023-05-05T04:19:01.665Z,36.39
2023-05-05T04:21:01.783Z,36.38
2023-05-05T04:22:01.829Z,36.39
2023-05-05T04:23:01.905Z,36.38
2023-05-05T04:24:01.967Z,36.35
2023-05-05T04:25:02.030Z,36.39
2023-05-05T04:26:02.087Z,36.40
2023-05-05T04:27:02.139Z,36.33
2023-05-05T04:28:02.208Z,36.38
2023-05-05T04:29:02.261Z,36.37
2023-05-05T04:30:02.326Z,36.39
2023-05-05T04:31:02.422Z,36.38
2023-05-05T04:32:02.477Z,36.33
2023-05-05T04:33:02.529Z,36.34
2023-05-05T04:34:02.574Z,36.33
2023-05-05T04:35:02.626Z,36.38
2023-05-05T04:36:02.704Z,36.39
2023-05-05T04:37:02.826Z,36.38
2023-05-05T04:38:02.830Z,36.38
2023-05-05T04:39:02.952Z,36.33
2023-05-05T04:40:02.959Z,36.36
2023-05-05T04:41:03.017Z,36.37
2023-05-05T04:42:03.074Z,36.33
2023-05-05T04:43:03.166Z,36.33
2023-05-05T04:44:03.204Z,36.33
2023-05-05T04:45:03.267Z,36.33
2023-05-05T04:46:03.376Z,36.31
2023-05-05T04:47:03.397Z,36.28
2023-05-05T04:48:03.470Z,36.29
2023-05-05T04:49:03.554Z,36.29
2023-05-05T04:50:03.583Z,36.33
2023-05-05T04:51:03.635Z,36.30
2023-05-05T04:52:03.692Z,36.30
2023-05-05T04:53:03.753Z,36.31
2023-05-05T04:54:03.818Z,36.27
2023-05-05T04:55:03.890Z,36.29
2023-05-05T04:56:03.931Z,36.29
2023-05-05T04:57:03.983Z,36.28
2023-05-05T04:58:04.049Z,36.28
2023-05-05T04:59:04.115Z,36.25
2023-05-05T05:00:04.159Z,36.23
2023-05-05T05:01:04.223Z,36.22
2023-05-05T05:02:04.337Z,36.26
2023-05-05T05:03:04.443Z,36.25
2023-05-05T05:04:04.640Z,36.27
2023-05-05T05:05:04.425Z,36.20
2023-05-05T05:06:04.479Z,36.20
2023-05-05T05:07:04.546Z,36.24
2023-05-05T05:08:04.599Z,36.22
2023-05-05T05:09:04.641Z,36.24
2023-05-05T05:10:04.717Z,36.23
2023-05-05T05:11:04.758Z,36.22
2023-05-05T05:12:04.824Z,36.18
2023-05-05T05:13:04.898Z,36.19
2023-05-05T05:14:04.919Z,36.21
2023-05-05T05:15:04.984Z,36.18
2023-05-05T05:16:05.080Z,36.18
2023-05-05T05:17:05.069Z,36.20
2023-05-05T05:18:05.176Z,36.16
2023-05-05T05:19:05.173Z,36.21
2023-05-05T05:20:05.334Z,36.53
2023-05-05T05:21:05.287Z,36.53
2023-05-05T05:22:05.347Z,36.45
2023-05-05T05:23:05.384Z,36.51
2023-05-05T05:24:05.427Z,36.97
2023-05-05T05:25:05.484Z,36.69
2023-05-05T05:26:05.531Z,37.16
2023-05-05T05:27:06.418Z,37.19
2023-05-05T05:28:10.627Z,36.96
2023-05-05T05:29:06.590Z,36.95
2023-05-05T05:30:05.713Z,36.94
2023-05-05T05:31:05.596Z,37.07
2023-05-05T05:32:05.674Z,37.00
2023-05-05T05:33:05.640Z,37.00
2023-05-05T05:34:05.612Z,36.94
2023-05-05T05:35:05.624Z,36.94
2023-05-05T05:36:05.644Z,36.93
2023-05-05T05:37:05.631Z,36.93
2023-05-05T05:38:05.626Z,36.82
2023-05-05T05:39:05.621Z,36.75
2023-05-05T05:40:05.670Z,36.69
2023-05-05T05:41:05.652Z,36.65
2023-05-05T05:42:05.644Z,36.69
2023-05-05T05:43:05.657Z,36.69
2023-05-05T05:44:05.656Z,36.63
2023-05-05T05:45:05.655Z,36.65
2023-05-05T05:46:08.225Z,36.58
2023-05-05T05:47:05.686Z,36.59
2023-05-05T05:48:05.706Z,36.61
2023-05-05T05:49:05.681Z,36.64
2023-05-05T05:50:05.838Z,36.61
2023-05-05T05:51:05.696Z,36.59
2023-05-05T05:52:05.702Z,36.59
2023-05-05T05:53:05.708Z,36.58
2023-05-05T05:54:05.720Z,36.58
2023-05-05T05:55:05.727Z,36.59
2023-05-05T05:56:05.729Z,36.58
2023-05-05T05:57:05.736Z,36.47
2023-05-05T05:58:05.736Z,36.43
2023-05-05T05:59:06.129Z,36.43
2023-05-05T06:00:05.881Z,36.36
2023-05-05T06:01:05.760Z,36.27
2023-05-05T06:02:05.791Z,36.26
2023-05-05T06:03:05.878Z,36.21
2023-05-05T06:04:05.784Z,36.15
2023-05-05T06:05:05.757Z,36.11
2023-05-05T06:06:05.755Z,36.14
2023-05-05T06:07:05.778Z,36.11
2023-05-05T06:08:05.776Z,36.09
2023-05-05T06:09:05.774Z,36.03
2023-05-05T06:10:22.900Z,36.03
2023-05-05T06:11:06.769Z,36.00
2023-05-05T06:12:05.798Z,36.00
2023-05-05T06:13:05.828Z,36.00
2023-05-05T06:14:05.787Z,36.00
2023-05-05T06:15:05.773Z,35.97
2023-05-05T06:16:05.797Z,35.99
2023-05-05T06:17:05.782Z,35.91
2023-05-05T06:18:05.824Z,35.89
2023-05-05T06:19:05.785Z,35.94
2023-05-05T06:20:05.880Z,35.84
2023-05-05T06:21:05.778Z,35.82
2023-05-05T06:22:05.786Z,35.77
2023-05-05T06:23:05.800Z,35.73
2023-05-05T06:24:05.931Z,35.76
2023-05-05T06:25:05.947Z,35.76
2023-05-05T06:26:05.785Z,35.72
2023-05-05T06:27:05.804Z,35.63
2023-05-05T06:28:05.869Z,35.71
2023-05-05T06:29:05.790Z,35.65
2023-05-05T06:30:06.148Z,35.64
2023-05-05T06:31:05.921Z,36.39
2023-05-05T06:32:06.010Z,36.20
2023-05-05T06:33:06.082Z,36.76
2023-05-05T06:34:06.064Z,36.62
2023-05-05T06:35:06.129Z,37.88
2023-05-05T06:36:07.082Z,37.26
2023-05-05T06:37:06.236Z,37.21
2023-05-05T06:38:06.268Z,37.52
2023-05-05T06:39:06.311Z,37.71
2023-05-05T06:40:06.400Z,37.70
2023-05-05T06:41:06.373Z,37.70
2023-05-05T06:42:06.385Z,37.87
2023-05-05T06:43:06.418Z,37.99
2023-05-05T06:44:06.445Z,38.03
2023-05-05T06:45:06.483Z,38.09
2023-05-05T06:46:06.475Z,38.30
2023-05-05T06:47:06.573Z,38.42
2023-05-05T06:48:06.514Z,38.40
2023-05-05T06:49:06.510Z,38.54
2023-05-05T06:50:06.782Z,38.79
2023-05-05T06:51:06.679Z,38.79
2023-05-05T06:52:06.540Z,38.91
2023-05-05T06:53:06.549Z,38.82
2023-05-05T06:54:06.551Z,39.04
2023-05-05T06:55:06.549Z,39.20
2023-05-05T06:56:06.554Z,39.36
2023-05-05T06:57:06.752Z,39.43
2023-05-05T06:58:06.603Z,41.24
2023-05-05T06:59:06.535Z,39.92
2023-05-05T07:00:06.795Z,39.69
2023-05-05T07:01:06.582Z,39.88
2023-05-05T07:02:06.522Z,39.70
2023-05-05T07:03:06.523Z,39.81
2023-05-05T07:04:06.596Z,39.95
2023-05-05T07:05:06.493Z,40.19
2023-05-05T07:06:06.493Z,40.38
2023-05-05T07:07:06.463Z,40.63
2023-05-05T07:08:06.448Z,40.78
2023-05-05T07:09:06.433Z,41.02
2023-05-05T07:10:06.633Z,41.15
2023-05-05T07:11:06.406Z,41.26
2023-05-05T07:12:06.394Z,41.25
2023-05-05T07:13:06.487Z,41.36
2023-05-05T07:14:06.363Z,41.52
2023-05-05T07:15:19.200Z,41.59
2023-05-05T07:16:07.353Z,41.60
2023-05-05T07:17:06.295Z,41.81
2023-05-05T07:18:06.392Z,42.19
2023-05-05T07:19:06.260Z,41.94
2023-05-05T07:20:06.419Z,40.68
2023-05-05T07:21:06.232Z,39.85
2023-05-05T07:22:06.201Z,38.84
2023-05-05T07:23:06.179Z,37.13
2023-05-05T07:24:06.165Z,34.71
2023-05-05T07:25:06.148Z,35.51
2023-05-05T07:26:06.131Z,35.29
2023-05-05T07:27:06.127Z,34.63
2023-05-05T07:28:06.110Z,33.80
2023-05-05T07:29:06.269Z,34.48
2023-05-05T07:30:11.245Z,34.09
2023-05-05T07:31:07.137Z,34.69
2023-05-05T07:32:06.153Z,34.28
2023-05-05T07:33:06.161Z,33.83
2023-05-05T07:34:06.113Z,33.25
2023-05-05T07:35:06.099Z,33.05
2023-05-05T07:36:06.098Z,32.81
2023-05-05T07:37:06.084Z,33.95
2023-05-05T07:38:06.072Z,33.98
2023-05-05T07:39:06.078Z,33.33
2023-05-05T07:40:06.403Z,34.05
2023-05-05T07:41:06.058Z,34.42
2023-05-05T07:42:06.049Z,34.29
2023-05-05T07:43:06.088Z,34.11
2023-05-05T07:44:06.122Z,34.14
2023-05-05T07:45:06.155Z,34.34
2023-05-05T07:46:06.232Z,34.40
2023-05-05T07:47:06.206Z,34.48
2023-05-05T07:48:06.310Z,34.49
2023-05-05T07:49:06.280Z,34.52
2023-05-05T07:50:06.742Z,34.45
2023-05-05T07:51:06.341Z,34.50
2023-05-05T07:52:06.383Z,34.49
2023-05-05T07:53:14.641Z,34.49
2023-05-05T07:54:07.397Z,34.46
2023-05-05T07:55:06.397Z,34.31
2023-05-05T07:56:06.357Z,34.17
2023-05-05T07:57:06.351Z,34.20
2023-05-05T07:58:07.090Z,33.89
2023-05-05T07:59:07.161Z,33.91
2023-05-05T08:00:07.314Z,34.11
2023-05-05T08:01:06.496Z,34.06
2023-05-05T08:02:06.404Z,34.16
2023-05-05T08:03:07.774Z,34.20
2023-05-05T08:04:07.173Z,34.11
2023-05-05T08:05:06.671Z,34.08
2023-05-05T08:06:06.231Z,34.01
2023-05-05T08:07:06.212Z,33.24
2023-05-05T08:08:06.187Z,33.53
2023-05-05T08:09:06.191Z,33.55
2023-05-05T08:10:06.148Z,33.67
2023-05-05T08:11:06.141Z,32.77
2023-05-05T08:12:06.120Z,32.05
2023-05-05T08:13:06.224Z,31.54
2023-05-05T08:15:05.518Z,31.40
2023-05-05T08:16:05.389Z,31.01
2023-05-05T08:17:05.382Z,31.21
2023-05-05T08:18:05.382Z,31.83
2023-05-05T08:19:14.619Z,32.45
2023-05-05T08:20:06.239Z,32.63
2023-05-05T08:21:05.199Z,32.24
2023-05-05T08:22:05.180Z,32.73
2023-05-05T08:23:05.157Z,33.48
2023-05-05T08:24:05.134Z,32.97
2023-05-05T08:25:05.148Z,31.88
2023-05-05T08:26:05.048Z,31.65
2023-05-05T08:27:05.034Z,31.92
2023-05-05T08:28:05.013Z,32.62
2023-05-05T08:29:04.987Z,32.84
2023-05-05T08:30:04.976Z,32.75
2023-05-05T08:31:05.587Z,32.88
2023-05-05T08:32:05.002Z,33.04
2023-05-05T08:33:05.148Z,32.72
2023-05-05T08:34:05.035Z,32.68
2023-05-05T08:35:05.203Z,33.01
2023-05-05T08:36:05.043Z,32.70
2023-05-05T08:37:05.079Z,32.94
2023-05-05T08:38:05.092Z,32.62
2023-05-05T08:39:05.058Z,33.14
2023-05-05T08:40:05.053Z,33.07
2023-05-05T08:41:05.051Z,33.33
2023-05-05T08:42:05.051Z,33.42
2023-05-05T08:43:05.067Z,33.42
2023-05-05T08:44:05.028Z,33.42
2023-05-05T08:45:05.050Z,33.23
2023-05-05T08:46:04.997Z,33.57
2023-05-05T08:47:05.004Z,33.39
2023-05-05T08:48:05.150Z,33.50
2023-05-05T08:49:05.064Z,33.63
2023-05-05T08:50:04.937Z,33.54
2023-05-05T08:51:05.660Z,33.62
2023-05-05T08:52:04.863Z,33.78
2023-05-05T08:53:04.854Z,33.84
2023-05-05T08:54:04.814Z,33.83
2023-05-05T08:55:04.866Z,33.99
2023-05-05T08:56:04.756Z,34.22
2023-05-05T08:57:04.745Z,34.14
2023-05-05T08:58:04.685Z,34.26
2023-05-05T08:59:04.684Z,34.33
2023-05-05T09:00:04.641Z,34.16
2023-05-05T09:01:04.623Z,34.13
2023-05-05T09:02:04.618Z,34.11
2023-05-05T09:03:04.715Z,34.08
2023-05-05T09:04:04.526Z,34.10
2023-05-05T09:05:04.557Z,34.10
2023-05-05T09:06:04.501Z,34.33
2023-05-05T09:07:04.429Z,34.14
2023-05-05T09:08:04.410Z,34.16
2023-05-05T09:09:04.377Z,34.16
2023-05-05T09:10:04.365Z,34.15
2023-05-05T09:11:04.327Z,33.99
2023-05-05T09:12:04.314Z,33.97
2023-05-05T09:13:04.289Z,34.17
2023-05-05T09:14:04.230Z,34.10
2023-05-05T09:15:04.204Z,35.01
2023-05-05T09:16:04.156Z,34.75
2023-05-05T09:17:04.229Z,34.77
2023-05-05T09:18:04.159Z,34.80
2023-05-05T09:19:04.069Z,34.58
2023-05-05T09:20:04.054Z,34.48
2023-05-05T09:21:04.106Z,34.64
2023-05-05T09:22:03.950Z,34.96
2023-05-05T09:23:03.914Z,35.26
2023-05-05T09:24:08.203Z,35.42
2023-05-05T09:25:04.886Z,35.61
2023-05-05T09:26:03.783Z,35.70
2023-05-05T09:27:03.754Z,35.93
2023-05-05T09:28:03.712Z,36.04
2023-05-05T09:29:03.646Z,36.13
2023-05-05T09:30:03.635Z,36.29
2023-05-05T09:31:03.593Z,36.45
2023-05-05T09:32:03.559Z,36.56
2023-05-05T09:33:03.534Z,36.62
2023-05-05T09:34:03.435Z,36.59
2023-05-05T09:35:03.389Z,36.75
2023-05-05T09:36:03.358Z,36.85
2023-05-05T09:37:03.451Z,36.93
2023-05-05T09:38:03.276Z,37.02
2023-05-05T09:39:03.224Z,37.05
2023-05-05T09:40:03.186Z,37.12
2023-05-05T09:41:03.139Z,37.11
2023-05-05T09:42:03.093Z,37.18
2023-05-05T09:43:03.062Z,37.23
2023-05-05T09:44:02.981Z,37.45
2023-05-05T09:45:02.949Z,37.39
2023-05-05T09:46:02.938Z,37.53
2023-05-05T09:47:05.276Z,37.52
2023-05-05T09:48:02.941Z,37.59
2023-05-05T09:49:02.796Z,37.55
2023-05-05T09:50:02.738Z,37.79
2023-05-05T09:51:02.687Z,37.87
2023-05-05T09:52:02.677Z,37.87
2023-05-05T09:53:03.569Z,37.99
2023-05-05T09:54:02.584Z,38.06
2023-05-05T09:55:02.541Z,38.12
2023-05-05T09:56:02.496Z,38.19
2023-05-05T09:57:02.476Z,38.20
2023-05-05T09:58:02.435Z,38.22
2023-05-05T09:59:02.367Z,38.33
2023-05-05T10:00:03.322Z,38.28
2023-05-05T10:01:02.314Z,38.39
2023-05-05T10:02:02.318Z,38.09
2023-05-05T10:03:02.272Z,38.02
2023-05-05T10:04:02.135Z,37.85
2023-05-05T10:05:02.533Z,37.55
2023-05-05T10:06:02.052Z,37.67
2023-05-05T10:07:02.670Z,37.76
2023-05-05T10:08:01.957Z,37.72
2023-05-05T10:09:01.919Z,37.55
2023-05-05T10:10:01.873Z,37.29
2023-05-05T10:11:01.849Z,37.10
2023-05-05T10:12:01.794Z,37.08
2023-05-05T10:13:01.885Z,37.05
2023-05-05T10:14:02.733Z,37.07
2023-05-05T10:15:01.678Z,37.05
2023-05-05T10:16:01.737Z,37.08
2023-05-05T10:17:02.109Z,37.07
2023-05-05T10:18:07.744Z,37.05
2023-05-05T10:19:02.540Z,37.05
2023-05-05T10:20:01.508Z,37.08
2023-05-05T10:21:01.464Z,37.10
2023-05-05T10:22:01.433Z,37.08
2023-05-05T10:23:01.394Z,37.10
2023-05-05T10:24:01.355Z,37.08
2023-05-05T10:25:01.335Z,37.13
2023-05-05T10:26:01.287Z,37.69
2023-05-05T10:27:01.261Z,37.39
2023-05-05T10:28:01.227Z,37.34
2023-05-05T10:29:01.197Z,37.29
2023-05-05T10:30:01.200Z,37.28
2023-05-05T10:31:01.171Z,37.30
2023-05-05T10:32:01.148Z,37.25
2023-05-05T10:33:17.291Z,37.23
2023-05-05T10:34:02.155Z,37.27
2023-05-05T10:35:02.054Z,37.22
2023-05-05T10:36:00.987Z,37.25
2023-05-05T10:37:00.956Z,37.24
2023-05-05T10:38:00.942Z,37.25
2023-05-05T10:39:00.905Z,37.24
2023-05-05T10:40:00.850Z,37.28
2023-05-05T10:41:00.881Z,37.27
2023-05-05T10:42:01.555Z,37.26
2023-05-05T10:43:00.758Z,37.28
2023-05-05T10:44:02.970Z,37.26
2023-05-05T10:45:01.185Z,37.24
2023-05-05T10:46:00.785Z,37.25
2023-05-05T10:47:00.614Z,37.25
2023-05-05T10:48:00.625Z,37.24
2023-05-05T10:49:00.591Z,37.27
2023-05-05T10:50:00.542Z,37.29
2023-05-05T10:51:00.466Z,37.29
2023-05-05T10:52:00.449Z,37.27
2023-05-05T10:53:00.428Z,37.23
2023-05-05T10:54:00.391Z,37.28
2023-05-05T10:55:00.343Z,37.29
2023-05-05T10:56:00.307Z,37.28
2023-05-05T10:57:00.291Z,37.29
2023-05-05T10:58:00.256Z,37.28
2023-05-05T10:59:00.931Z,37.25
2023-05-05T11:00:00.274Z,37.22
2023-05-05T11:01:00.224Z,37.25
2023-05-05T11:02:00.142Z,37.29
2023-05-05T11:03:00.176Z,37.26
2023-05-05T11:04:00.074Z,37.29
2023-05-05T11:05:00.024Z,37.30
2023-05-05T11:05:59.982Z,37.28
2023-05-05T11:06:59.954Z,37.31
2023-05-05T11:07:59.952Z,37.31
2023-05-05T11:08:59.900Z,37.31
2023-05-05T11:09:59.871Z,37.38
2023-05-05T11:10:59.856Z,37.34
2023-05-05T11:11:59.823Z,37.35
2023-05-05T11:12:59.895Z,37.36
2023-05-05T11:13:59.755Z,37.35
2023-05-05T11:14:59.717Z,37.32
2023-05-05T11:15:59.688Z,37.34
2023-05-05T11:16:59.704Z,37.37
2023-05-05T11:17:59.704Z,37.39
2023-05-05T11:18:59.774Z,37.34
2023-05-05T11:19:59.643Z,37.32
2023-05-05T11:20:59.599Z,37.29
2023-05-05T11:21:59.542Z,37.34
2023-05-05T11:22:59.552Z,37.32
2023-05-05T11:23:59.472Z,37.33
2023-05-05T11:24:59.443Z,37.29
2023-05-05T11:25:59.421Z,37.37
2023-05-05T11:26:59.425Z,37.28
2023-05-05T11:27:59.361Z,37.32
2023-05-05T11:28:59.384Z,37.25
2023-05-05T11:29:59.313Z,37.27
2023-05-05T11:30:59.771Z,37.23
2023-05-05T11:31:59.309Z,37.26
2023-05-05T11:32:59.354Z,37.22
2023-05-05T11:33:59.321Z,37.25
2023-05-05T11:34:59.336Z,37.28
2023-05-05T11:35:59.347Z,37.20
2023-05-05T11:36:59.359Z,37.26
2023-05-05T11:37:59.375Z,37.25
2023-05-05T11:38:59.387Z,37.28
2023-05-05T11:39:59.396Z,37.24
2023-05-05T11:40:59.400Z,37.19
2023-05-05T11:41:59.422Z,37.18
2023-05-05T11:42:59.442Z,37.21
2023-05-05T11:43:59.463Z,37.24
2023-05-05T11:44:59.544Z,37.27
2023-05-05T11:45:59.516Z,37.25
2023-05-05T11:46:59.496Z,37.26
2023-05-05T11:47:59.638Z,37.26
2023-05-05T11:48:59.549Z,37.19
2023-05-05T11:49:59.537Z,37.22
2023-05-05T11:50:59.519Z,37.21
2023-05-05T11:51:59.560Z,37.18
2023-05-05T11:52:59.523Z,37.19
2023-05-05T11:53:59.531Z,37.18
2023-05-05T11:54:59.587Z,37.22
2023-05-05T11:55:59.541Z,37.22
2023-05-05T11:56:59.573Z,37.19
2023-05-05T11:57:59.570Z,37.22
2023-05-05T11:58:59.576Z,37.15
2023-05-05T11:59:59.614Z,37.11
2023-05-05T12:00:59.587Z,37.17
2023-05-05T12:01:59.595Z,37.14
2023-05-05T12:02:59.656Z,37.10
2023-05-05T12:03:59.767Z,37.13
2023-05-05T12:04:59.715Z,37.07
2023-05-05T12:05:59.608Z,37.09
2023-05-05T12:06:59.625Z,37.09
2023-05-05T12:07:59.656Z,37.09
2023-05-05T12:08:59.624Z,37.07
2023-05-05T12:09:59.634Z,37.07
2023-05-05T12:10:59.631Z,37.03
2023-05-05T12:11:59.669Z,37.05
2023-05-05T12:12:59.703Z,37.04
2023-05-05T12:13:59.660Z,37.00
2023-05-05T12:14:59.673Z,37.04
2023-05-05T12:15:59.678Z,36.99
2023-05-05T12:16:59.795Z,37.01
2023-05-05T12:18:02.323Z,37.00
2023-05-05T12:18:59.644Z,36.98
2023-05-05T12:19:59.616Z,36.95
2023-05-05T12:20:59.589Z,36.94
2023-05-05T12:21:59.544Z,36.95
2023-05-05T12:22:59.508Z,36.95
2023-05-05T12:23:59.465Z,36.91
2023-05-05T12:24:59.435Z,36.92
2023-05-05T12:25:59.418Z,36.86
2023-05-05T12:26:59.372Z,36.90
2023-05-05T12:27:59.333Z,36.86
2023-05-05T12:28:59.292Z,36.91
2023-05-05T12:29:59.255Z,36.86
2023-05-05T12:30:59.263Z,36.87
2023-05-05T12:31:59.225Z,36.89
2023-05-05T12:32:59.274Z,36.87
2023-05-05T12:33:59.123Z,36.88
2023-05-05T12:34:59.088Z,36.90
2023-05-05T12:35:59.040Z,36.89
2023-05-05T12:36:59.006Z,36.85
2023-05-05T12:37:58.956Z,36.87
2023-05-05T12:38:58.919Z,36.87
2023-05-05T12:39:58.897Z,36.83
2023-05-05T12:40:58.832Z,36.82
2023-05-05T12:41:58.799Z,36.82
2023-05-05T12:42:58.754Z,36.81
2023-05-05T12:43:58.734Z,36.82
2023-05-05T12:44:58.683Z,36.85
2023-05-05T12:45:58.675Z,36.81
2023-05-05T12:46:58.596Z,36.79
2023-05-05T12:47:58.590Z,36.82
2023-05-05T12:48:58.525Z,36.82
2023-05-05T12:49:58.494Z,36.77
2023-05-05T12:50:58.461Z,36.79
2023-05-05T12:51:58.442Z,36.76
2023-05-05T12:52:58.379Z,36.75
2023-05-05T12:53:58.329Z,36.74
2023-05-05T12:54:58.298Z,36.78